createdAt,value
2018-05-25T00:00:49.558Z,59.50
2018-05-25T00:03:16.874Z,61.20
2018-05-25T00:05:44.241Z,60.10
2018-05-25T00:08:11.661Z,57.30
2018-05-25T00:10:39.251Z,56.60
2018-05-25T00:13:06.692Z,57.60
2018-05-25T00:15:34.015Z,57.80
2018-05-25T00:18:02.360Z,57.30
2018-05-25T00:20:31.114Z,56.10
2018-05-25T00:23:02.014Z,56.20
2018-05-25T00:25:29.303Z,55.40
2018-05-25T00:27:56.598Z,55.80
2018-05-25T00:30:27.765Z,57.50
2018-05-25T00:32:56.799Z,55.50
2018-05-25T00:35:25.819Z,57.20
2018-05-25T00:37:53.986Z,57.00
2018-05-25T00:40:21.322Z,55.10
2018-05-25T00:42:49.407Z,55.30
2018-05-25T00:45:21.954Z,55.50
2018-05-25T00:47:51.178Z,55.20
2018-05-25T00:50:22.095Z,55.30
2018-05-25T00:52:54.067Z,54.80
2018-05-25T00:55:35.137Z,54.40
2018-05-25T00:58:02.641Z,55.00
2018-05-25T01:00:30.692Z,53.10
2018-05-25T01:02:58.975Z,54.80
2018-05-25T01:05:27.095Z,52.30
2018-05-25T01:07:54.571Z,55.50
2018-05-25T01:10:21.997Z,54.20
2018-05-25T01:12:49.289Z,54.10
2018-05-25T01:15:16.586Z,54.00
2018-05-25T01:17:48.437Z,54.20
2018-05-25T01:20:15.789Z,54.90
2018-05-25T01:22:43.878Z,54.20
2018-05-25T01:25:11.961Z,54.20
2018-05-25T01:27:39.382Z,53.40
2018-05-25T01:30:07.650Z,55.60
2018-05-25T01:32:34.952Z,57.40
2018-05-25T01:35:04.105Z,56.30
2018-05-25T01:37:31.421Z,55.90
2018-05-25T01:39:58.722Z,57.20
2018-05-25T01:42:26.806Z,55.80
2018-05-25T01:44:59.762Z,56.80
2018-05-25T01:47:30.821Z,57.30
2018-05-25T01:50:02.818Z,59.70
2018-05-25T01:52:30.199Z,61.80
2018-05-25T01:54:57.478Z,62.00
2018-05-25T01:57:25.666Z,61.90
2018-05-25T01:59:53.855Z,62.00
2018-05-25T02:02:21.200Z,61.70
2018-05-25T02:04:48.536Z,62.40
2018-05-25T02:07:15.910Z,62.50
2018-05-25T02:09:44.198Z,63.40
2018-05-25T02:14:40.601Z,62.40
2018-05-25T02:17:07.991Z,62.30
2018-05-25T02:19:36.150Z,63.00
2018-05-25T02:22:04.254Z,62.50
2018-05-25T02:24:31.515Z,62.10
2018-05-25T02:26:59.554Z,63.90
2018-05-25T02:31:55.824Z,62.60
2018-05-25T02:34:23.857Z,62.20
2018-05-25T02:36:51.943Z,61.40
2018-05-25T02:39:19.249Z,62.30
2018-05-25T02:41:47.264Z,63.00
2018-05-25T02:46:42.769Z,62.90
2018-05-25T02:51:39.162Z,61.30
2018-05-25T02:54:06.652Z,59.90
2018-05-25T02:56:33.999Z,60.20
2018-05-25T02:59:02.042Z,63.20
2018-05-25T03:03:58.364Z,63.10
2018-05-25T03:08:54.587Z,63.10
2018-05-25T03:13:50.150Z,62.50
2018-05-25T03:16:18.201Z,59.70
2018-05-25T03:21:13.847Z,60.00
2018-05-25T03:23:41.132Z,61.00
2018-05-25T03:26:09.227Z,61.20
2018-05-25T03:28:37.241Z,62.00
2018-05-25T03:31:04.711Z,65.00
2018-05-25T03:33:32.729Z,64.40
2018-05-25T03:38:28.327Z,59.90
2018-05-25T03:40:55.665Z,63.60
2018-05-25T03:43:22.954Z,63.20
2018-05-25T03:45:50.987Z,60.90
2018-05-25T03:48:18.346Z,58.50
2018-05-25T03:50:46.479Z,55.60
2018-05-25T03:55:42.701Z,61.40
2018-05-25T03:58:10.035Z,60.70
2018-05-25T04:00:49.502Z,59.20
2018-05-25T04:03:16.703Z,58.40
2018-05-25T04:08:12.241Z,57.10
2018-05-25T04:15:36.012Z,54.10
2018-05-25T04:20:32.382Z,55.00
2018-05-25T04:22:59.629Z,55.40
2018-05-25T04:25:27.809Z,55.40
2018-05-25T04:27:55.095Z,54.70
2018-05-25T04:32:50.765Z,55.50
2018-05-25T04:37:47.075Z,53.80
2018-05-25T04:42:43.551Z,52.80
2018-05-25T04:47:39.136Z,53.40
2018-05-25T04:52:35.018Z,51.80
2018-05-25T04:57:31.262Z,53.90
2018-05-25T05:02:27.495Z,55.90
2018-05-25T05:07:23.122Z,58.50
2018-05-25T05:12:18.820Z,61.90
2018-05-25T05:14:46.212Z,62.90
2018-05-25T05:17:14.358Z,63.10
2018-05-25T05:19:41.775Z,63.60
2018-05-25T05:22:09.094Z,63.50
2018-05-25T05:27:04.549Z,63.60
2018-05-25T05:32:00.843Z,63.90
2018-05-25T05:34:28.127Z,64.10
2018-05-25T05:39:24.440Z,65.40
2018-05-25T05:44:19.978Z,62.30
2018-05-25T05:49:15.665Z,62.50
2018-05-25T05:51:42.930Z,64.30
2018-05-25T05:54:10.272Z,65.60
2018-05-25T05:56:38.314Z,66.00
2018-05-25T06:01:34.529Z,64.80
2018-05-25T06:06:30.765Z,63.10
2018-05-25T06:08:58.760Z,62.90
2018-05-25T06:11:26.101Z,62.40
2018-05-25T06:18:50.590Z,58.20
2018-05-25T06:23:46.179Z,55.60
2018-05-25T06:28:41.725Z,53.90
2018-05-25T06:33:38.054Z,53.30
2018-05-25T06:38:33.577Z,52.80
2018-05-25T06:43:29.986Z,54.40
2018-05-25T06:50:54.648Z,50.40
2018-05-25T06:53:22.766Z,51.30
2018-05-25T06:55:50.245Z,50.20
2018-05-25T06:58:17.549Z,49.20
2018-05-25T07:00:45.691Z,48.40
2018-05-25T07:03:13.881Z,47.70
2018-05-25T07:05:41.972Z,47.10
2018-05-25T07:08:09.238Z,46.80
2018-05-25T07:10:36.569Z,46.50
2018-05-25T07:15:32.144Z,46.00
2018-05-25T07:20:28.583Z,46.00
2018-05-25T07:22:56.873Z,46.00
2018-05-25T07:25:24.292Z,46.00
2018-05-25T07:27:51.648Z,44.40
2018-05-25T07:30:18.976Z,46.70
2018-05-25T07:32:47.023Z,46.70
2018-05-25T07:37:43.002Z,46.90
2018-05-25T07:40:11.059Z,46.60
2018-05-25T07:42:39.105Z,47.00
2018-05-25T07:47:34.780Z,46.00
2018-05-25T07:50:02.143Z,45.20
2018-05-25T07:52:29.805Z,44.30
2018-05-25T07:54:57.141Z,44.30
2018-05-25T07:57:24.607Z,44.60
2018-05-25T07:59:51.982Z,44.10
2018-05-25T08:02:19.388Z,44.30
2018-05-25T08:04:47.431Z,44.10
2018-05-25T08:09:43.321Z,43.70
2018-05-25T08:12:10.772Z,42.90
2018-05-25T08:14:38.130Z,42.70
2018-05-25T08:17:05.455Z,42.50
2018-05-25T08:22:01.164Z,41.90
2018-05-25T08:24:28.613Z,42.50
2018-05-25T08:26:55.947Z,42.40
2018-05-25T08:31:52.886Z,41.30
2018-05-25T08:34:20.249Z,41.30
2018-05-25T08:36:48.381Z,41.60
2018-05-25T08:41:43.897Z,42.20
2018-05-25T08:44:11.335Z,41.70
2018-05-25T08:46:39.402Z,41.40
2018-05-25T08:49:06.726Z,41.20
2018-05-25T08:51:34.047Z,40.50
2018-05-25T08:54:02.227Z,40.90
2018-05-25T08:56:30.277Z,40.80
2018-05-25T08:58:57.631Z,41.00
2018-05-25T09:01:24.923Z,40.50
2018-05-25T09:03:52.359Z,39.30
2018-05-25T09:06:20.484Z,40.60
2018-05-25T09:08:47.800Z,40.40
2018-05-25T09:11:15.099Z,40.30
2018-05-25T09:13:42.503Z,40.20
2018-05-25T09:16:09.825Z,39.80
2018-05-25T09:18:37.865Z,38.90
2018-05-25T09:21:05.464Z,39.20
2018-05-25T09:23:32.848Z,39.00
2018-05-25T09:28:28.439Z,39.10
2018-05-25T09:33:24.316Z,37.90
2018-05-25T09:35:52.353Z,37.50
2018-05-25T09:38:19.627Z,38.00
2018-05-25T09:40:46.978Z,38.90
2018-05-25T09:45:42.521Z,38.70
2018-05-25T09:48:09.932Z,38.90
2018-05-25T09:53:06.339Z,39.60
2018-05-25T09:55:34.405Z,38.70
2018-05-25T10:00:29.853Z,38.80
2018-05-25T10:02:57.491Z,38.30
2018-05-25T10:05:25.583Z,39.00
2018-05-25T10:07:53.364Z,40.50
2018-05-25T10:10:21.062Z,41.60
2018-05-25T10:12:48.431Z,42.00
2018-05-25T10:15:15.729Z,42.60
2018-05-25T10:17:43.038Z,43.00
2018-05-25T10:20:10.563Z,43.50
2018-05-25T10:22:38.652Z,43.70
2018-05-25T10:25:05.991Z,43.90
2018-05-25T10:27:33.292Z,44.00
2018-05-25T10:30:00.615Z,44.20
2018-05-25T10:32:28.015Z,44.20
2018-05-25T10:34:55.347Z,44.30
2018-05-25T10:37:22.818Z,44.30
2018-05-25T10:39:50.173Z,44.20
2018-05-25T10:42:17.679Z,43.50
2018-05-25T10:44:45.411Z,40.90
2018-05-25T10:49:41.882Z,37.50
2018-05-25T10:54:37.490Z,36.40
2018-05-25T10:57:04.825Z,36.20
2018-05-25T11:04:32.771Z,36.20
2018-05-25T11:14:26.626Z,36.70
2018-05-25T11:16:53.980Z,37.60
2018-05-25T11:19:21.370Z,37.20
2018-05-25T11:21:50.253Z,36.00
2018-05-25T11:24:20.619Z,34.60
2018-05-25T11:29:16.983Z,36.40
2018-05-25T11:31:44.976Z,35.80
2018-05-25T11:34:12.345Z,32.80
2018-05-25T11:36:39.666Z,34.00
2018-05-25T11:39:07.705Z,34.50
2018-05-25T11:41:35.795Z,34.00
2018-05-25T11:44:03.943Z,34.00
2018-05-25T11:46:31.247Z,32.90
2018-05-25T11:48:58.592Z,34.30
2018-05-25T11:51:25.912Z,36.20
2018-05-25T11:53:54.070Z,37.40
2018-05-25T11:56:21.351Z,38.50
2018-05-25T12:01:42.235Z,32.00
2018-05-25T12:04:12.229Z,34.40
2018-05-25T12:06:51.859Z,34.30
2018-05-25T12:09:20.232Z,33.30
2018-05-25T12:11:49.515Z,34.00
2018-05-25T12:14:16.871Z,34.10
2018-05-25T12:16:45.783Z,33.70
2018-05-25T12:19:20.394Z,33.70
2018-05-25T12:21:56.679Z,33.40
2018-05-25T12:24:28.771Z,34.60
2018-05-25T12:26:57.259Z,35.00
2018-05-25T12:29:26.407Z,34.80
2018-05-25T12:31:57.380Z,34.70
2018-05-25T12:34:27.491Z,34.20
2018-05-25T12:37:07.283Z,34.20
2018-05-25T12:39:36.874Z,34.10
2018-05-25T12:42:07.125Z,33.90
2018-05-25T12:44:47.275Z,34.30
2018-05-25T12:47:18.093Z,34.30
2018-05-25T12:49:45.403Z,33.90
2018-05-25T12:52:15.332Z,34.60
2018-05-25T12:54:43.602Z,34.80
2018-05-25T12:57:11.070Z,34.90
2018-05-25T12:59:39.158Z,34.80
2018-05-25T13:02:08.358Z,34.70
2018-05-25T13:04:38.368Z,35.00
2018-05-25T13:07:07.531Z,33.50
2018-05-25T13:09:40.382Z,34.30
2018-05-25T13:12:09.815Z,34.50
2018-05-25T13:14:39.582Z,33.30
2018-05-25T13:17:08.678Z,33.70
2018-05-25T13:19:36.882Z,29.50
2018-05-25T13:22:09.751Z,31.90
2018-05-25T13:24:38.829Z,32.90
2018-05-25T13:27:09.694Z,33.30
2018-05-25T13:29:38.935Z,34.50
2018-05-25T13:32:09.153Z,28.70
2018-05-25T13:34:38.886Z,32.50
2018-05-25T13:37:07.080Z,33.30
2018-05-25T13:39:35.441Z,33.90
2018-05-25T13:42:03.800Z,35.00
2018-05-25T13:44:31.159Z,35.40
2018-05-25T13:46:58.537Z,35.60
2018-05-25T13:49:26.589Z,35.80
2018-05-25T13:51:53.923Z,35.10
2018-05-25T13:54:21.200Z,35.00
2018-05-25T13:56:49.280Z,35.50
2018-05-25T13:59:16.751Z,35.10
2018-05-25T14:01:44.061Z,35.30
2018-05-25T14:04:11.346Z,35.50
2018-05-25T14:06:38.666Z,35.60
2018-05-25T14:09:05.963Z,35.60
2018-05-25T14:11:34.094Z,35.80
2018-05-25T14:14:01.445Z,35.90
2018-05-25T14:16:28.797Z,35.90
2018-05-25T14:18:56.115Z,33.90
2018-05-25T14:21:23.416Z,35.90
2018-05-25T14:23:50.759Z,37.10
2018-05-25T14:26:18.188Z,37.90
2018-05-25T14:28:46.359Z,38.00
2018-05-25T14:31:13.670Z,37.40
2018-05-25T14:36:09.391Z,37.50
2018-05-25T14:41:04.970Z,37.40
2018-05-25T14:43:32.367Z,37.60
2018-05-25T14:50:56.319Z,37.60
2018-05-25T14:55:51.882Z,38.00
2018-05-25T14:58:19.164Z,38.30
2018-05-25T15:03:14.706Z,38.30
2018-05-25T15:05:42.792Z,38.40
2018-05-25T15:08:10.839Z,38.30
2018-05-25T15:13:06.362Z,38.20
2018-05-25T15:15:34.331Z,38.00
2018-05-25T15:18:01.626Z,38.10
2018-05-25T15:20:29.780Z,38.40
2018-05-25T15:22:57.137Z,39.10
2018-05-25T15:25:25.264Z,39.70
2018-05-25T15:27:52.591Z,39.70
2018-05-25T15:30:19.978Z,40.10
2018-05-25T15:32:48.154Z,40.20
2018-05-25T15:37:44.323Z,40.00
2018-05-25T15:40:11.539Z,40.60
2018-05-25T15:42:38.887Z,40.00
2018-05-25T15:45:06.379Z,40.20
2018-05-25T15:55:00.098Z,41.30
2018-05-25T15:59:55.512Z,42.70
2018-05-25T16:04:51.042Z,44.10
2018-05-25T16:07:18.331Z,44.30
2018-05-25T16:09:45.935Z,44.40
2018-05-25T16:12:13.173Z,44.50
2018-05-25T16:17:08.539Z,44.70
2018-05-25T16:19:36.535Z,44.80
2018-05-25T16:27:00.076Z,44.30
2018-05-25T16:29:27.734Z,44.30
2018-05-25T16:31:54.959Z,44.40
2018-05-25T16:34:22.175Z,44.20
2018-05-25T16:36:50.372Z,44.30
2018-05-25T16:41:46.508Z,44.40
2018-05-25T16:44:14.711Z,44.60
2018-05-25T16:46:41.946Z,44.70
2018-05-25T16:49:10.462Z,44.40
2018-05-25T16:51:37.672Z,44.40
2018-05-25T16:54:04.885Z,44.00
2018-05-25T16:56:32.222Z,44.50
2018-05-25T16:59:00.266Z,44.60
2018-05-25T17:01:28.256Z,43.40
2018-05-25T17:06:23.803Z,43.90
2018-05-25T17:08:51.749Z,43.90
2018-05-25T17:11:19.034Z,44.00
2018-05-25T17:13:46.495Z,44.00
2018-05-25T17:16:14.452Z,44.20
2018-05-25T17:21:11.025Z,39.70
2018-05-25T17:23:38.971Z,43.10
2018-05-25T17:28:34.705Z,43.10
2018-05-25T17:33:30.064Z,44.10
2018-05-25T17:35:58.208Z,44.10
2018-05-25T17:40:53.642Z,44.50
2018-05-25T17:43:21.773Z,44.60
2018-05-25T17:45:49.094Z,44.60
2018-05-25T17:53:12.572Z,44.80
2018-05-25T17:55:40.562Z,45.00
2018-05-25T18:03:04.441Z,44.90
2018-05-25T18:08:00.809Z,45.40
2018-05-25T18:10:28.804Z,45.40
2018-05-25T18:12:56.804Z,45.20
2018-05-25T18:15:24.770Z,45.50
2018-05-25T18:17:52.955Z,46.00
2018-05-25T18:22:48.342Z,45.50
2018-05-25T18:25:15.561Z,45.60
2018-05-25T18:27:42.981Z,45.50
2018-05-25T18:32:38.451Z,45.40
2018-05-25T18:35:06.490Z,45.50
2018-05-25T18:40:02.647Z,45.60
2018-05-25T18:42:29.905Z,46.20
2018-05-25T18:44:57.185Z,45.70
2018-05-25T18:47:24.559Z,45.20
2018-05-25T18:49:52.622Z,45.20
2018-05-25T18:52:19.991Z,45.60
2018-05-25T18:54:48.030Z,45.60
2018-05-25T18:57:15.316Z,44.60
2018-05-25T18:59:42.678Z,44.70
2018-05-25T19:02:10.599Z,44.90
2018-05-25T19:04:38.744Z,44.60
2018-05-25T19:07:06.696Z,44.70
2018-05-25T19:09:34.717Z,45.30
2018-05-25T19:12:02.882Z,45.40
2018-05-25T19:14:30.523Z,45.00
2018-05-25T19:19:25.954Z,45.80
2018-05-25T19:21:53.190Z,45.80
2018-05-25T19:24:20.635Z,46.00
2018-05-25T19:26:48.637Z,46.00
2018-05-25T19:31:44.734Z,45.90
2018-05-25T19:39:08.352Z,45.60
2018-05-25T19:41:35.563Z,45.20
2018-05-25T19:44:02.798Z,46.80
2018-05-25T19:46:30.718Z,46.70
2018-05-25T19:51:26.904Z,45.20
2018-05-25T19:53:54.871Z,45.20
2018-05-25T19:56:22.126Z,47.00
2018-05-25T19:58:49.387Z,47.10
2018-05-25T20:01:17.351Z,46.70
2018-05-25T20:03:44.567Z,46.90
2018-05-25T20:06:11.824Z,46.80
2018-05-25T20:08:39.215Z,47.00
2018-05-25T20:11:06.551Z,46.90
2018-05-25T20:16:02.904Z,46.90
2018-05-25T20:18:30.359Z,47.00
2018-05-25T20:25:55.009Z,46.80
2018-05-25T20:30:51.636Z,46.60
2018-05-25T20:33:23.797Z,46.90
2018-05-25T20:35:51.006Z,48.00
2018-05-25T20:38:18.980Z,47.10
2018-05-25T20:40:47.032Z,48.30
2018-05-25T20:43:14.255Z,48.10
2018-05-25T20:45:42.497Z,47.00
2018-05-25T20:48:09.818Z,46.70
2018-05-25T20:50:37.783Z,48.40
2018-05-25T20:55:33.930Z,48.40
2018-05-25T20:58:01.953Z,46.80
2018-05-25T21:00:29.182Z,46.60
2018-05-25T21:02:57.155Z,48.50
2018-05-25T21:07:52.680Z,48.60
2018-05-25T21:10:20.621Z,47.10
2018-05-25T21:12:48.584Z,47.10
2018-05-25T21:17:44.841Z,47.90
2018-05-25T21:20:12.843Z,47.30
2018-05-25T21:25:08.977Z,48.50
2018-05-25T21:27:36.379Z,50.00
2018-05-25T21:30:03.703Z,48.40
2018-05-25T21:32:30.969Z,48.90
2018-05-25T21:37:27.418Z,49.10
2018-05-25T21:39:54.814Z,49.80
2018-05-25T21:42:22.808Z,50.30
2018-05-25T21:44:50.990Z,50.50
2018-05-25T21:47:19.090Z,51.00
2018-05-25T21:49:47.252Z,51.20
2018-05-25T21:52:15.648Z,51.00
2018-05-25T21:54:43.156Z,51.00
2018-05-25T21:57:11.223Z,51.20
2018-05-25T21:59:39.270Z,50.90
2018-05-25T22:02:07.233Z,51.30
2018-05-25T22:04:35.311Z,50.30
2018-05-25T22:09:30.895Z,49.60
2018-05-25T22:14:26.426Z,49.70
2018-05-25T22:19:22.187Z,50.10
2018-05-25T22:24:17.666Z,51.90
2018-05-25T22:26:44.883Z,51.30
2018-05-25T22:34:09.831Z,51.30
2018-05-25T22:36:37.851Z,51.80
2018-05-25T22:41:33.407Z,51.40
2018-05-25T22:46:53.825Z,51.80
2018-05-25T22:57:11.026Z,51.40
2018-05-25T22:59:39.063Z,52.10
2018-05-25T23:02:06.550Z,51.70
2018-05-25T23:04:33.830Z,51.50
2018-05-25T23:07:01.162Z,51.50
2018-05-25T23:09:28.508Z,51.50
2018-05-25T23:11:56.579Z,51.10
2018-05-25T23:14:23.934Z,49.90
2018-05-25T23:16:52.160Z,51.20
2018-05-25T23:19:19.495Z,51.70
2018-05-25T23:21:47.484Z,52.50
2018-05-25T23:24:14.875Z,53.50
2018-05-25T23:26:42.940Z,51.50
2018-05-25T23:29:11.019Z,52.90
2018-05-25T23:31:39.054Z,53.40
2018-05-25T23:34:06.430Z,52.60
2018-05-25T23:36:34.502Z,52.40
2018-05-25T23:43:58.875Z,52.50
2018-05-25T23:48:54.518Z,53.10
2018-05-25T23:51:21.827Z,51.60
2018-05-25T23:53:49.874Z,51.30
2018-05-25T23:58:45.379Z,52.40
